createdAt,value
2023-05-10T00:01:39.305Z,8.10
2023-05-10T00:04:07.909Z,8.48
2023-05-10T00:06:36.377Z,7.60
2023-05-10T00:09:04.880Z,7.90
2023-05-10T00:11:34.760Z,8.65
2023-05-10T00:14:03.220Z,7.85
2023-05-10T00:16:31.799Z,7.93
2023-05-10T00:19:00.255Z,8.40
2023-05-10T00:21:29.541Z,8.80
2023-05-10T00:23:57.988Z,7.95
2023-05-10T00:26:26.359Z,8.73
2023-05-10T00:28:59.672Z,8.27
2023-05-10T00:31:28.650Z,7.72
2023-05-10T00:33:57.371Z,7.53
2023-05-10T00:36:25.978Z,8.52
2023-05-10T00:38:54.428Z,8.50
2023-05-10T00:41:23.210Z,8.27
2023-05-10T00:43:51.978Z,9.30
2023-05-10T00:46:22.595Z,10.00
2023-05-10T00:48:51.409Z,8.98
2023-05-10T00:51:19.987Z,8.25
2023-05-10T00:53:48.726Z,9.25
2023-05-10T00:56:17.704Z,7.50
2023-05-10T00:58:46.260Z,8.43
2023-05-10T01:01:15.381Z,9.32
2023-05-10T01:03:45.943Z,8.93
2023-05-10T01:06:14.735Z,7.40
2023-05-10T01:08:43.256Z,9.57
2023-05-10T01:11:12.141Z,7.78
2023-05-10T01:16:09.704Z,8.38
2023-05-10T01:18:42.454Z,8.80
2023-05-10T01:21:21.871Z,8.75
2023-05-10T01:24:33.437Z,7.90
2023-05-10T01:27:32.647Z,7.88
2023-05-10T01:30:46.988Z,7.60
2023-05-10T01:33:21.385Z,7.22
2023-05-10T01:35:55.903Z,8.05
2023-05-10T01:38:32.241Z,6.82
2023-05-10T01:41:15.309Z,7.50
2023-05-10T01:43:50.962Z,7.85
2023-05-10T01:46:27.053Z,7.32
2023-05-10T01:49:00.147Z,8.45
2023-05-10T01:51:47.370Z,7.80
2023-05-10T01:54:17.568Z,7.55
2023-05-10T01:56:47.832Z,6.78
2023-05-10T01:59:20.555Z,7.25
2023-05-10T02:01:51.172Z,7.47
2023-05-10T02:04:24.392Z,7.82
2023-05-10T02:06:55.210Z,7.88
2023-05-10T02:09:23.976Z,6.85
2023-05-10T02:11:52.833Z,6.68
2023-05-10T02:14:22.361Z,7.20
2023-05-10T02:16:53.149Z,6.78
2023-05-10T02:19:25.844Z,5.90
2023-05-10T02:22:15.213Z,6.47
2023-05-10T02:24:44.398Z,6.30
2023-05-10T02:27:14.657Z,6.95
2023-05-10T02:29:44.807Z,7.30
2023-05-10T02:32:14.822Z,7.38
2023-05-10T02:34:46.848Z,6.53
2023-05-10T02:37:19.520Z,7.22
2023-05-10T02:39:49.345Z,7.30
2023-05-10T02:42:20.467Z,7.57
2023-05-10T02:44:51.054Z,7.90
2023-05-10T02:47:20.720Z,6.57
2023-05-10T02:49:51.864Z,5.63
2023-05-10T02:52:25.698Z,6.68
2023-05-10T02:54:58.000Z,7.80
2023-05-10T02:57:30.879Z,6.63
2023-05-10T02:59:59.610Z,7.07
2023-05-10T03:02:28.091Z,6.50
2023-05-10T03:04:58.235Z,6.13
2023-05-10T03:07:27.283Z,7.50
2023-05-10T03:09:58.576Z,5.68
2023-05-10T03:12:43.141Z,7.20
2023-05-10T03:15:23.773Z,6.40
2023-05-10T03:17:58.590Z,6.20
2023-05-10T03:20:37.791Z,5.20
2023-05-10T03:23:14.896Z,7.03
2023-05-10T03:25:45.769Z,7.13
2023-05-10T03:28:16.668Z,6.43
2023-05-10T03:30:47.234Z,6.60
2023-05-10T03:33:15.999Z,5.68
2023-05-10T03:35:48.910Z,7.10
2023-05-10T03:38:18.170Z,6.22
2023-05-10T03:40:46.738Z,5.68
2023-05-10T03:43:15.274Z,6.28
2023-05-10T03:45:44.341Z,8.40
2023-05-10T03:48:14.745Z,6.97
2023-05-10T03:50:44.025Z,7.10
2023-05-10T03:55:42.827Z,7.15
2023-05-10T03:58:13.514Z,8.00
2023-05-10T04:00:44.895Z,6.90
2023-05-10T04:03:14.776Z,6.80
2023-05-10T04:05:43.314Z,7.35
2023-05-10T04:08:13.243Z,7.05
2023-05-10T04:10:41.852Z,7.57
2023-05-10T04:13:10.248Z,7.35
2023-05-10T04:15:38.709Z,6.15
2023-05-10T04:18:08.835Z,7.22
2023-05-10T04:20:37.493Z,6.32
2023-05-10T04:23:05.903Z,6.35
2023-05-10T04:25:37.790Z,7.80
2023-05-10T04:28:06.555Z,6.35
2023-05-10T04:30:35.012Z,7.80
2023-05-10T04:33:03.682Z,7.82
2023-05-10T04:35:32.112Z,7.20
2023-05-10T04:38:00.544Z,6.30
2023-05-10T04:40:29.080Z,8.23
2023-05-10T04:42:58.993Z,8.02
2023-05-10T04:45:27.437Z,7.95
2023-05-10T04:47:55.853Z,7.20
2023-05-10T04:50:24.390Z,6.63
2023-05-10T04:52:53.426Z,6.43
2023-05-10T04:55:22.190Z,7.18
2023-05-10T04:57:50.687Z,6.38
2023-05-10T05:00:21.691Z,6.95
2023-05-10T05:02:50.956Z,6.45
2023-05-10T05:05:19.478Z,5.72
2023-05-10T05:07:48.005Z,5.25
2023-05-10T05:10:16.648Z,4.80
2023-05-10T05:12:48.810Z,5.15
2023-05-10T05:15:17.870Z,5.45
2023-05-10T05:17:47.870Z,3.97
2023-05-10T05:20:16.866Z,4.47
2023-05-10T05:22:45.584Z,3.20
2023-05-10T05:25:14.099Z,3.35
2023-05-10T05:27:42.539Z,3.88
2023-05-10T05:30:12.295Z,3.38
2023-05-10T05:32:40.953Z,3.83
2023-05-10T05:35:11.292Z,3.30
2023-05-10T05:37:39.819Z,2.90
2023-05-10T05:40:09.334Z,3.47
2023-05-10T05:42:37.783Z,3.40
2023-05-10T05:45:06.798Z,3.30
2023-05-10T05:47:35.642Z,3.10
2023-05-10T05:52:33.641Z,3.30
2023-05-10T05:55:02.143Z,3.55
2023-05-10T05:57:32.594Z,3.30
2023-05-10T06:00:01.198Z,3.03
2023-05-10T06:02:29.816Z,3.00
2023-05-10T06:04:58.541Z,2.55
2023-05-10T06:07:27.025Z,2.60
2023-05-10T06:09:56.865Z,2.17
2023-05-10T06:12:25.303Z,2.15
2023-05-10T06:14:53.801Z,2.50
2023-05-10T06:17:22.817Z,1.60
2023-05-10T06:22:19.742Z,2.42
2023-05-10T06:24:48.124Z,2.15
2023-05-10T06:27:18.381Z,2.25
2023-05-10T06:29:47.035Z,1.75
2023-05-10T06:32:15.437Z,2.08
2023-05-10T06:34:44.548Z,2.80
2023-05-10T06:37:12.983Z,1.98
2023-05-10T06:39:41.516Z,1.95
2023-05-10T06:42:09.952Z,1.98
2023-05-10T06:44:39.813Z,2.53
2023-05-10T06:47:08.274Z,2.00
2023-05-10T06:49:36.750Z,2.33
2023-05-10T06:52:05.239Z,2.47
2023-05-10T06:54:33.678Z,1.58
2023-05-10T06:57:05.850Z,1.55
2023-05-10T06:59:37.488Z,2.28
2023-05-10T07:02:07.852Z,1.98
2023-05-10T07:04:36.450Z,2.03
2023-05-10T07:07:04.928Z,2.00
2023-05-10T07:09:33.385Z,1.95
2023-05-10T07:12:02.861Z,2.05
2023-05-10T07:14:31.345Z,2.63
2023-05-10T07:16:59.753Z,2.40
2023-05-10T07:19:30.511Z,2.60
2023-05-10T07:21:58.998Z,2.20
2023-05-10T07:24:27.637Z,1.83
2023-05-10T07:26:56.098Z,1.58
2023-05-10T07:29:24.477Z,1.83
2023-05-10T07:31:52.990Z,2.00
2023-05-10T07:34:21.507Z,1.60
2023-05-10T07:36:51.353Z,1.70
2023-05-10T07:39:26.523Z,1.65
2023-05-10T07:41:56.730Z,1.80
2023-05-10T07:46:53.375Z,1.60
2023-05-10T07:49:22.018Z,1.92
2023-05-10T07:51:52.026Z,1.42
2023-05-10T07:54:20.470Z,1.95
2023-05-10T07:59:18.686Z,2.03
2023-05-10T08:01:47.479Z,2.00
2023-05-10T08:06:44.633Z,2.72
2023-05-10T08:09:14.502Z,2.00
2023-05-10T08:11:42.982Z,1.75
2023-05-10T08:14:11.357Z,1.80
2023-05-10T08:16:39.834Z,2.50
2023-05-10T08:19:08.397Z,1.95
2023-05-10T08:21:36.903Z,1.27
2023-05-10T08:24:05.992Z,1.10
2023-05-10T08:26:36.285Z,1.38
2023-05-10T08:29:05.039Z,1.30
2023-05-10T08:31:33.472Z,1.20
2023-05-10T08:34:02.208Z,1.10
2023-05-10T08:36:31.009Z,1.30
2023-05-10T08:38:59.491Z,1.58
2023-05-10T08:41:28.031Z,1.40
2023-05-10T08:43:58.037Z,1.35
2023-05-10T08:46:26.544Z,1.58
2023-05-10T08:48:57.057Z,1.45
2023-05-10T08:51:27.913Z,1.48
2023-05-10T08:53:57.076Z,1.40
2023-05-10T08:56:26.197Z,1.50
2023-05-10T08:58:54.816Z,1.45
2023-05-10T09:01:25.495Z,1.48
2023-05-10T09:03:54.688Z,1.38
2023-05-10T09:06:23.497Z,1.52
2023-05-10T09:11:22.204Z,1.20
2023-05-10T09:13:53.014Z,1.33
2023-05-10T09:16:22.569Z,1.20
2023-05-10T09:18:52.596Z,1.30
2023-05-10T09:21:22.734Z,1.30
2023-05-10T09:23:55.176Z,1.40
2023-05-10T09:26:26.843Z,1.55
2023-05-10T09:28:57.228Z,1.40
2023-05-10T09:31:26.915Z,1.65
2023-05-10T09:33:56.790Z,1.60
2023-05-10T09:36:25.126Z,1.60
2023-05-10T09:38:54.685Z,1.60
2023-05-10T09:41:25.076Z,1.40
2023-05-10T09:43:58.075Z,1.20
2023-05-10T09:46:27.174Z,1.40
2023-05-10T09:48:57.010Z,1.50
2023-05-10T09:51:27.976Z,1.35
2023-05-10T09:54:12.918Z,1.50
2023-05-10T09:56:41.764Z,1.70
2023-05-10T10:01:39.494Z,1.50
2023-05-10T10:04:11.939Z,1.80
2023-05-10T10:06:41.004Z,1.58
2023-05-10T10:09:10.010Z,1.52
2023-05-10T10:11:40.899Z,2.00
2023-05-10T10:14:09.423Z,2.22
2023-05-10T10:16:45.841Z,1.75
2023-05-10T10:19:22.628Z,1.80
2023-05-10T10:21:52.315Z,1.90
2023-05-10T10:24:20.861Z,1.70
2023-05-10T10:26:50.588Z,2.00
2023-05-10T10:29:26.049Z,2.08
2023-05-10T10:32:03.544Z,1.75
2023-05-10T10:34:34.259Z,1.80
2023-05-10T10:37:07.797Z,1.67
2023-05-10T10:39:37.910Z,1.90
2023-05-10T10:42:07.261Z,1.65
2023-05-10T10:44:41.449Z,1.80
2023-05-10T10:47:28.526Z,1.48
2023-05-10T10:50:07.888Z,1.60
2023-05-10T10:52:37.644Z,1.90
2023-05-10T10:55:09.469Z,1.70
2023-05-10T10:57:48.162Z,1.92
2023-05-10T11:00:29.361Z,1.83
2023-05-10T11:03:02.162Z,2.20
2023-05-10T11:05:50.497Z,1.50
2023-05-10T11:08:23.058Z,1.88
2023-05-10T11:10:54.041Z,1.50
2023-05-10T11:13:31.701Z,1.65
2023-05-10T11:16:00.847Z,1.80
2023-05-10T11:18:31.590Z,1.67
2023-05-10T11:21:04.331Z,1.83
2023-05-10T11:23:34.576Z,1.65
2023-05-10T11:26:03.434Z,1.75
2023-05-10T11:31:00.496Z,1.92
2023-05-10T11:33:28.945Z,1.60
2023-05-10T11:35:57.307Z,2.13
2023-05-10T11:38:27.095Z,1.55
2023-05-10T11:40:55.822Z,1.50
2023-05-10T11:45:55.243Z,2.58
2023-05-10T11:48:25.062Z,2.33
2023-05-10T11:50:53.922Z,1.40
2023-05-10T11:55:54.570Z,1.98
2023-05-10T11:58:24.467Z,1.83
2023-05-10T12:00:53.147Z,1.83
2023-05-10T12:03:21.902Z,2.03
2023-05-10T12:08:24.084Z,2.13
2023-05-10T12:10:54.598Z,1.67
2023-05-10T12:13:23.563Z,1.60
2023-05-10T12:15:52.703Z,1.65
2023-05-10T12:18:25.981Z,2.03
2023-05-10T12:20:55.288Z,1.50
2023-05-10T12:23:23.760Z,1.65
2023-05-10T12:25:55.052Z,1.67
2023-05-10T12:28:24.962Z,1.52
2023-05-10T12:30:56.358Z,1.70
2023-05-10T12:33:24.907Z,1.85
2023-05-10T12:35:54.995Z,1.63
2023-05-10T12:38:31.949Z,1.80
2023-05-10T12:41:01.755Z,1.65
2023-05-10T12:43:32.133Z,1.80
2023-05-10T12:46:00.634Z,1.70
2023-05-10T12:48:29.836Z,1.75
2023-05-10T12:50:58.202Z,1.70
2023-05-10T12:53:26.903Z,1.50
2023-05-10T12:58:34.953Z,1.52
2023-05-10T13:01:07.739Z,1.50
2023-05-10T13:03:36.189Z,1.70
2023-05-10T13:06:04.602Z,1.90
2023-05-10T13:08:34.787Z,1.80
2023-05-10T13:11:04.563Z,1.88
2023-05-10T13:13:35.547Z,2.17
2023-05-10T13:16:05.627Z,2.00
2023-05-10T13:18:34.326Z,2.15
2023-05-10T13:21:04.985Z,2.00
2023-05-10T13:23:33.518Z,2.00
2023-05-10T13:26:01.926Z,1.88
2023-05-10T13:28:31.272Z,1.80
2023-05-10T13:31:01.140Z,1.65
2023-05-10T13:33:31.103Z,2.03
2023-05-10T13:35:59.651Z,1.63
2023-05-10T13:38:28.058Z,1.75
2023-05-10T13:40:56.588Z,1.90
2023-05-10T13:43:26.005Z,1.55
2023-05-10T13:45:54.516Z,2.08
2023-05-10T13:48:23.028Z,1.95
2023-05-10T13:50:52.932Z,1.90
2023-05-10T13:53:21.356Z,2.00
2023-05-10T13:58:36.609Z,2.15
2023-05-10T14:01:06.076Z,1.70
2023-05-10T14:03:34.846Z,1.98
2023-05-10T14:08:33.313Z,2.10
2023-05-10T14:11:01.758Z,2.08
2023-05-10T14:13:30.225Z,2.03
2023-05-10T14:15:59.910Z,1.77
2023-05-10T14:18:28.775Z,1.95
2023-05-10T14:20:57.490Z,1.65
2023-05-10T14:25:55.754Z,1.92
2023-05-10T14:28:24.756Z,1.60
2023-05-10T14:30:53.305Z,1.42
2023-05-10T14:33:21.901Z,1.60
2023-05-10T14:35:50.661Z,1.60
2023-05-10T14:38:19.149Z,1.60
2023-05-10T14:40:48.902Z,1.90
2023-05-10T14:43:17.486Z,1.70
2023-05-10T14:45:46.448Z,1.75
2023-05-10T14:48:17.209Z,1.85
2023-05-10T14:50:45.812Z,1.63
2023-05-10T14:53:14.386Z,2.00
2023-05-10T14:55:43.083Z,1.70
2023-05-10T14:58:13.113Z,1.70
2023-05-10T15:00:41.557Z,1.50
2023-05-10T15:05:39.606Z,1.90
2023-05-10T15:08:08.058Z,1.58
2023-05-10T15:10:36.657Z,1.80
2023-05-10T15:13:06.418Z,1.67
2023-05-10T15:15:36.356Z,1.58
2023-05-10T15:18:05.739Z,1.58
2023-05-10T15:20:34.305Z,1.75
2023-05-10T15:23:05.012Z,1.45
2023-05-10T15:25:35.929Z,1.80
2023-05-10T15:28:04.590Z,1.60
2023-05-10T15:30:33.168Z,1.60
2023-05-10T15:33:03.399Z,1.48
2023-05-10T15:35:31.965Z,1.80
2023-05-10T15:38:00.410Z,1.70
2023-05-10T15:40:28.960Z,1.75
2023-05-10T15:42:57.458Z,1.65
2023-05-10T15:45:25.847Z,1.77
2023-05-10T15:47:54.404Z,1.75
2023-05-10T15:50:27.783Z,1.40
2023-05-10T15:52:56.362Z,1.90
2023-05-10T15:55:26.495Z,1.60
2023-05-10T15:57:55.060Z,1.85
2023-05-10T16:00:23.489Z,2.03
2023-05-10T16:02:54.199Z,1.70
2023-05-10T16:05:24.920Z,1.80
2023-05-10T16:07:59.957Z,2.10
2023-05-10T16:10:29.539Z,1.77
2023-05-10T16:12:58.023Z,1.88
2023-05-10T16:15:29.754Z,2.00
2023-05-10T16:17:58.412Z,1.85
2023-05-10T16:23:04.611Z,1.90
2023-05-10T16:25:33.762Z,2.10
2023-05-10T16:28:02.816Z,2.42
2023-05-10T16:30:31.346Z,1.92
2023-05-10T16:33:02.012Z,2.38
2023-05-10T16:35:30.729Z,2.17
2023-05-10T16:38:04.097Z,2.35
2023-05-10T16:40:32.651Z,1.88
2023-05-10T16:43:01.505Z,2.47
2023-05-10T16:48:02.948Z,2.13
2023-05-10T16:50:31.492Z,2.20
2023-05-10T16:53:03.268Z,1.70
2023-05-10T16:55:32.196Z,1.70
2023-05-10T16:58:01.076Z,2.17
2023-05-10T17:02:58.334Z,1.75
2023-05-10T17:05:28.335Z,1.98
2023-05-10T17:07:59.946Z,1.60
2023-05-10T17:10:30.061Z,1.60
2023-05-10T17:12:58.554Z,1.80
2023-05-10T17:15:28.224Z,1.65
2023-05-10T17:17:57.781Z,1.70
2023-05-10T17:20:26.800Z,2.00
2023-05-10T17:22:58.195Z,1.98
2023-05-10T17:25:30.576Z,1.60
2023-05-10T17:28:03.412Z,1.67
2023-05-10T17:30:32.908Z,1.70
2023-05-10T17:33:03.871Z,1.70
2023-05-10T17:35:35.604Z,1.70
2023-05-10T17:38:04.168Z,2.10
2023-05-10T17:40:44.339Z,2.20
2023-05-10T17:43:43.297Z,2.00
2023-05-10T17:46:13.076Z,2.65
2023-05-10T17:48:45.439Z,2.47
2023-05-10T17:51:16.033Z,2.40
2023-05-10T17:53:47.149Z,1.95
2023-05-10T17:56:17.578Z,2.15
2023-05-10T17:58:51.243Z,3.38
2023-05-10T18:01:21.714Z,3.47
2023-05-10T18:03:53.726Z,4.43
2023-05-10T18:06:28.073Z,3.92
2023-05-10T18:08:57.111Z,3.78
2023-05-10T18:14:00.075Z,2.97
2023-05-10T18:16:29.093Z,2.92
2023-05-10T18:18:57.689Z,3.20
2023-05-10T18:21:26.284Z,2.70
2023-05-10T18:23:54.810Z,2.80
2023-05-10T18:26:26.438Z,2.80
2023-05-10T18:28:55.076Z,2.92
2023-05-10T18:31:29.590Z,2.42
2023-05-10T18:33:59.346Z,2.47
2023-05-10T18:36:29.708Z,2.95
2023-05-10T18:38:59.647Z,2.60
2023-05-10T18:41:29.450Z,2.88
2023-05-10T18:44:03.288Z,2.90
2023-05-10T18:46:33.869Z,2.50
2023-05-10T18:49:02.767Z,2.40
2023-05-10T18:54:01.564Z,2.60
2023-05-10T18:56:34.854Z,2.83
2023-05-10T18:59:03.573Z,3.50
2023-05-10T19:01:40.335Z,3.00
2023-05-10T19:04:11.360Z,2.90
2023-05-10T19:06:41.696Z,2.55
2023-05-10T19:09:10.191Z,2.80
2023-05-10T19:11:38.580Z,2.70
2023-05-10T19:14:07.109Z,3.72
2023-05-10T19:16:37.051Z,4.65
2023-05-10T19:19:10.344Z,4.70
2023-05-10T19:21:39.016Z,4.00
2023-05-10T19:24:08.039Z,3.78
2023-05-10T19:26:37.385Z,4.43
2023-05-10T19:29:06.105Z,4.57
2023-05-10T19:36:38.177Z,4.38
2023-05-10T19:39:06.715Z,4.38
2023-05-10T19:41:35.333Z,3.88
2023-05-10T19:44:09.748Z,4.18
2023-05-10T19:46:40.959Z,4.88
2023-05-10T19:49:18.367Z,4.72
2023-05-10T19:51:48.850Z,4.68
2023-05-10T19:54:18.400Z,5.65
2023-05-10T19:56:46.815Z,5.40
2023-05-10T19:59:15.549Z,5.35
2023-05-10T20:01:46.998Z,5.63
2023-05-10T20:04:16.589Z,5.78
2023-05-10T20:06:45.527Z,5.97
2023-05-10T20:09:22.819Z,5.45
2023-05-10T20:11:53.931Z,5.35
2023-05-10T20:14:26.045Z,5.63
2023-05-10T20:16:56.726Z,5.22
2023-05-10T20:19:26.416Z,5.38
2023-05-10T20:21:58.799Z,5.10
2023-05-10T20:24:29.681Z,5.75
2023-05-10T20:26:58.971Z,5.05
2023-05-10T20:29:30.390Z,5.57
2023-05-10T20:31:59.958Z,5.07
2023-05-10T20:34:35.412Z,4.95
2023-05-10T20:37:04.154Z,5.60
2023-05-10T20:39:37.000Z,4.47
2023-05-10T20:42:06.313Z,4.53
2023-05-10T20:44:35.077Z,5.32
2023-05-10T20:47:06.827Z,4.78
2023-05-10T20:49:36.839Z,5.53
2023-05-10T20:52:10.555Z,5.47
2023-05-10T20:54:41.159Z,5.18
2023-05-10T20:57:14.216Z,5.70
2023-05-10T20:59:43.288Z,5.78
2023-05-10T21:02:18.588Z,5.75
2023-05-10T21:04:57.817Z,6.40
2023-05-10T21:07:27.490Z,7.30
2023-05-10T21:10:00.147Z,5.40
2023-05-10T21:12:29.328Z,6.25
2023-05-10T21:17:29.409Z,5.95
2023-05-10T21:19:58.305Z,5.03
2023-05-10T21:24:57.883Z,7.05
2023-05-10T21:27:27.042Z,5.50
2023-05-10T21:29:57.861Z,6.70
2023-05-10T21:32:27.413Z,6.45
2023-05-10T21:34:56.064Z,5.30
2023-05-10T21:37:27.810Z,6.45
2023-05-10T21:39:58.041Z,5.30
2023-05-10T21:42:29.220Z,5.63
2023-05-10T21:45:00.562Z,5.60
2023-05-10T21:47:29.108Z,5.20
2023-05-10T21:50:00.167Z,5.82
2023-05-10T21:52:28.824Z,5.07
2023-05-10T21:54:58.954Z,5.75
2023-05-10T21:57:29.344Z,5.78
2023-05-10T21:59:57.887Z,5.70
2023-05-10T22:02:26.847Z,5.60
2023-05-10T22:04:55.244Z,5.55
2023-05-10T22:07:24.267Z,5.28
2023-05-10T22:09:52.632Z,6.60
2023-05-10T22:12:22.524Z,5.18
2023-05-10T22:15:06.493Z,5.13
2023-05-10T22:17:39.726Z,4.95
2023-05-10T22:20:09.804Z,4.80
2023-05-10T22:22:38.541Z,4.53
2023-05-10T22:25:10.993Z,5.10
2023-05-10T22:27:40.897Z,4.57
2023-05-10T22:30:13.400Z,4.22
2023-05-10T22:32:41.969Z,4.60
2023-05-10T22:35:13.082Z,4.60
2023-05-10T22:37:41.773Z,4.28
2023-05-10T22:40:11.717Z,4.78
2023-05-10T22:42:41.501Z,4.82
2023-05-10T22:45:11.264Z,4.97
2023-05-10T22:47:39.857Z,4.63
2023-05-10T22:50:10.246Z,4.50
2023-05-10T22:52:39.524Z,4.80
2023-05-10T22:55:08.559Z,4.70
2023-05-10T22:57:37.490Z,5.13
2023-05-10T23:00:09.377Z,5.05
2023-05-10T23:02:37.937Z,5.43
2023-05-10T23:05:07.674Z,5.22
2023-05-10T23:07:36.213Z,4.93
2023-05-10T23:10:04.766Z,6.10
2023-05-10T23:12:34.188Z,6.40
2023-05-10T23:15:02.738Z,5.35
2023-05-10T23:17:33.688Z,6.28
2023-05-10T23:20:02.382Z,5.47
2023-05-10T23:22:31.748Z,5.10
2023-05-10T23:25:00.214Z,5.20
2023-05-10T23:27:30.649Z,5.82
2023-05-10T23:29:59.166Z,4.88
2023-05-10T23:32:27.596Z,5.82
2023-05-10T23:34:57.489Z,6.18
2023-05-10T23:37:25.990Z,5.60
2023-05-10T23:39:54.352Z,5.90
2023-05-10T23:42:22.857Z,6.25
2023-05-10T23:44:52.833Z,6.68
2023-05-10T23:47:21.321Z,7.05
2023-05-10T23:49:51.369Z,6.75
2023-05-10T23:52:24.908Z,6.72
2023-05-10T23:54:53.730Z,7.07
2023-05-10T23:57:22.160Z,6.70
2023-05-10T23:59:50.535Z,7.38
